sensor_id;sensor_type;location;lat;lon;timestamp;P1;durP1;ratioP1;P2;durP2;ratioP2
26407;SDS011;14583;43.604;1.364;2023-12-20T00:01:01;27.75;;;20.15;;
26407;SDS011;14583;43.604;1.364;2023-12-20T00:03:26;29.90;;;20.15;;
26407;SDS011;14583;43.604;1.364;2023-12-20T00:05:52;32.58;;;20.20;;
26407;SDS011;14583;43.604;1.364;2023-12-20T00:08:18;29.38;;;20.90;;
26407;SDS011;14583;43.604;1.364;2023-12-20T00:10:44;29.58;;;21.90;;
26407;SDS011;14583;43.604;1.364;2023-12-20T00:13:10;30.83;;;22.48;;
26407;SDS011;14583;43.604;1.364;2023-12-20T00:15:36;27.58;;;21.20;;
26407;SDS011;14583;43.604;1.364;2023-12-20T00:18:02;27.13;;;20.73;;
26407;SDS011;14583;43.604;1.364;2023-12-20T00:20:28;32.80;;;21.92;;
26407;SDS011;14583;43.604;1.364;2023-12-20T00:22:55;29.25;;;22.02;;
26407;SDS011;14583;43.604;1.364;2023-12-20T00:25:22;31.27;;;21.42;;
26407;SDS011;14583;43.604;1.364;2023-12-20T00:27:48;28.33;;;21.42;;
26407;SDS011;14583;43.604;1.364;2023-12-20T00:30:14;35.25;;;21.90;;
26407;SDS011;14583;43.604;1.364;2023-12-20T00:32:39;30.15;;;21.77;;
26407;SDS011;14583;43.604;1.364;2023-12-20T00:35:11;29.05;;;21.08;;
26407;SDS011;14583;43.604;1.364;2023-12-20T00:37:37;29.92;;;20.92;;
26407;SDS011;14583;43.604;1.364;2023-12-20T00:40:03;30.30;;;21.52;;
26407;SDS011;14583;43.604;1.364;2023-12-20T00:42:29;28.90;;;20.40;;
26407;SDS011;14583;43.604;1.364;2023-12-20T00:44:55;29.95;;;19.92;;
26407;SDS011;14583;43.604;1.364;2023-12-20T00:47:20;29.23;;;19.17;;
26407;SDS011;14583;43.604;1.364;2023-12-20T00:49:47;29.08;;;20.17;;
26407;SDS011;14583;43.604;1.364;2023-12-20T00:52:12;29.30;;;19.35;;
26407;SDS011;14583;43.604;1.364;2023-12-20T00:54:39;27.33;;;19.92;;
26407;SDS011;14583;43.604;1.364;2023-12-20T00:57:04;26.45;;;20.45;;
26407;SDS011;14583;43.604;1.364;2023-12-20T00:59:30;28.02;;;20.55;;
26407;SDS011;14583;43.604;1.364;2023-12-20T01:01:56;27.40;;;21.77;;
26407;SDS011;14583;43.604;1.364;2023-12-20T01:04:21;26.15;;;21.05;;
26407;SDS011;14583;43.604;1.364;2023-12-20T01:06:47;30.17;;;21.33;;
26407;SDS011;14583;43.604;1.364;2023-12-20T01:09:13;29.00;;;21.83;;
26407;SDS011;14583;43.604;1.364;2023-12-20T01:11:39;29.25;;;21.48;;
26407;SDS011;14583;43.604;1.364;2023-12-20T01:14:05;26.15;;;20.17;;
26407;SDS011;14583;43.604;1.364;2023-12-20T01:16:30;26.73;;;20.35;;
26407;SDS011;14583;43.604;1.364;2023-12-20T01:18:56;29.95;;;20.83;;
26407;SDS011;14583;43.604;1.364;2023-12-20T01:21:22;25.13;;;19.48;;
26407;SDS011;14583;43.604;1.364;2023-12-20T01:23:47;28.52;;;19.63;;
26407;SDS011;14583;43.604;1.364;2023-12-20T01:26:14;28.27;;;20.02;;
26407;SDS011;14583;43.604;1.364;2023-12-20T01:28:40;25.05;;;18.50;;
26407;SDS011;14583;43.604;1.364;2023-12-20T01:31:06;27.05;;;19.42;;
26407;SDS011;14583;43.604;1.364;2023-12-20T01:33:32;26.23;;;18.27;;
26407;SDS011;14583;43.604;1.364;2023-12-20T01:35:58;23.38;;;17.98;;
26407;SDS011;14583;43.604;1.364;2023-12-20T01:38:23;21.75;;;18.10;;
26407;SDS011;14583;43.604;1.364;2023-12-20T01:40:49;25.20;;;18.65;;
26407;SDS011;14583;43.604;1.364;2023-12-20T01:43:14;21.05;;;17.55;;
26407;SDS011;14583;43.604;1.364;2023-12-20T01:45:40;20.10;;;15.88;;
26407;SDS011;14583;43.604;1.364;2023-12-20T01:48:06;21.33;;;16.95;;
26407;SDS011;14583;43.604;1.364;2023-12-20T01:50:33;24.83;;;17.75;;
26407;SDS011;14583;43.604;1.364;2023-12-20T01:53:01;22.83;;;17.55;;
26407;SDS011;14583;43.604;1.364;2023-12-20T01:55:29;24.17;;;17.23;;
26407;SDS011;14583;43.604;1.364;2023-12-20T01:57:58;23.15;;;16.02;;
26407;SDS011;14583;43.604;1.364;2023-12-20T02:00:24;23.95;;;16.33;;
26407;SDS011;14583;43.604;1.364;2023-12-20T02:02:52;21.38;;;15.73;;
26407;SDS011;14583;43.604;1.364;2023-12-20T02:05:18;22.98;;;15.88;;
26407;SDS011;14583;43.604;1.364;2023-12-20T02:07:45;17.95;;;14.82;;
26407;SDS011;14583;43.604;1.364;2023-12-20T02:10:10;19.27;;;15.13;;
26407;SDS011;14583;43.604;1.364;2023-12-20T02:12:36;18.88;;;14.45;;
26407;SDS011;14583;43.604;1.364;2023-12-20T02:15:02;19.38;;;14.55;;
26407;SDS011;14583;43.604;1.364;2023-12-20T02:17:28;15.90;;;13.73;;
26407;SDS011;14583;43.604;1.364;2023-12-20T02:19:55;17.10;;;13.90;;
26407;SDS011;14583;43.604;1.364;2023-12-20T02:22:21;19.15;;;13.95;;
26407;SDS011;14583;43.604;1.364;2023-12-20T02:24:47;18.55;;;13.43;;
26407;SDS011;14583;43.604;1.364;2023-12-20T02:27:12;17.50;;;13.30;;
26407;SDS011;14583;43.604;1.364;2023-12-20T02:29:39;21.02;;;13.05;;
26407;SDS011;14583;43.604;1.364;2023-12-20T02:32:05;17.40;;;12.95;;
26407;SDS011;14583;43.604;1.364;2023-12-20T02:34:31;23.38;;;13.43;;
26407;SDS011;14583;43.604;1.364;2023-12-20T02:36:56;15.77;;;13.23;;
26407;SDS011;14583;43.604;1.364;2023-12-20T02:39:22;17.52;;;12.25;;
26407;SDS011;14583;43.604;1.364;2023-12-20T02:41:48;16.17;;;12.43;;
26407;SDS011;14583;43.604;1.364;2023-12-20T02:44:14;15.43;;;12.02;;
26407;SDS011;14583;43.604;1.364;2023-12-20T02:46:39;15.35;;;12.70;;
26407;SDS011;14583;43.604;1.364;2023-12-20T02:49:05;15.57;;;12.60;;
26407;SDS011;14583;43.604;1.364;2023-12-20T02:51:31;15.88;;;12.23;;
26407;SDS011;14583;43.604;1.364;2023-12-20T02:53:57;15.80;;;11.90;;
26407;SDS011;14583;43.604;1.364;2023-12-20T02:56:23;20.80;;;14.00;;
26407;SDS011;14583;43.604;1.364;2023-12-20T02:58:48;18.13;;;12.93;;
26407;SDS011;14583;43.604;1.364;2023-12-20T03:01:14;17.50;;;12.15;;
26407;SDS011;14583;43.604;1.364;2023-12-20T03:03:40;12.05;;;10.77;;
26407;SDS011;14583;43.604;1.364;2023-12-20T03:06:05;18.33;;;12.60;;
26407;SDS011;14583;43.604;1.364;2023-12-20T03:08:31;15.95;;;10.82;;
26407;SDS011;14583;43.604;1.364;2023-12-20T03:10:58;13.70;;;11.18;;
26407;SDS011;14583;43.604;1.364;2023-12-20T03:13:27;17.65;;;12.60;;
26407;SDS011;14583;43.604;1.364;2023-12-20T03:15:52;14.75;;;11.82;;
26407;SDS011;14583;43.604;1.364;2023-12-20T03:18:18;16.67;;;13.38;;
26407;SDS011;14583;43.604;1.364;2023-12-20T03:20:43;21.17;;;15.13;;
26407;SDS011;14583;43.604;1.364;2023-12-20T03:23:09;22.23;;;14.90;;
26407;SDS011;14583;43.604;1.364;2023-12-20T03:25:35;18.25;;;15.07;;
26407;SDS011;14583;43.604;1.364;2023-12-20T03:28:00;19.05;;;15.02;;
26407;SDS011;14583;43.604;1.364;2023-12-20T03:30:26;20.42;;;16.80;;
26407;SDS011;14583;43.604;1.364;2023-12-20T03:32:52;18.90;;;15.75;;
26407;SDS011;14583;43.604;1.364;2023-12-20T03:35:18;18.90;;;14.45;;
26407;SDS011;14583;43.604;1.364;2023-12-20T03:37:43;18.60;;;16.55;;
26407;SDS011;14583;43.604;1.364;2023-12-20T03:40:09;19.85;;;15.90;;
26407;SDS011;14583;43.604;1.364;2023-12-20T03:42:35;23.20;;;15.35;;
26407;SDS011;14583;43.604;1.364;2023-12-20T03:45:01;21.88;;;16.35;;
26407;SDS011;14583;43.604;1.364;2023-12-20T03:47:27;17.77;;;14.05;;
26407;SDS011;14583;43.604;1.364;2023-12-20T03:49:52;24.73;;;17.92;;
26407;SDS011;14583;43.604;1.364;2023-12-20T03:52:18;23.50;;;17.33;;
26407;SDS011;14583;43.604;1.364;2023-12-20T03:54:44;21.00;;;17.80;;
26407;SDS011;14583;43.604;1.364;2023-12-20T03:57:09;21.13;;;17.00;;
26407;SDS011;14583;43.604;1.364;2023-12-20T03:59:36;24.40;;;19.30;;
26407;SDS011;14583;43.604;1.364;2023-12-20T04:02:02;18.67;;;14.73;;
26407;SDS011;14583;43.604;1.364;2023-12-20T04:04:28;21.67;;;18.23;;
26407;SDS011;14583;43.604;1.364;2023-12-20T04:06:54;20.83;;;16.17;;
26407;SDS011;14583;43.604;1.364;2023-12-20T04:09:19;22.67;;;17.00;;
26407;SDS011;14583;43.604;1.364;2023-12-20T04:11:45;20.15;;;16.70;;
26407;SDS011;14583;43.604;1.364;2023-12-20T04:14:11;17.70;;;15.13;;
26407;SDS011;14583;43.604;1.364;2023-12-20T04:16:36;19.02;;;14.00;;
26407;SDS011;14583;43.604;1.364;2023-12-20T04:19:04;17.65;;;14.68;;
26407;SDS011;14583;43.604;1.364;2023-12-20T04:21:29;17.48;;;14.10;;
26407;SDS011;14583;43.604;1.364;2023-12-20T04:23:55;20.27;;;15.13;;
26407;SDS011;14583;43.604;1.364;2023-12-20T04:26:21;17.98;;;14.57;;
26407;SDS011;14583;43.604;1.364;2023-12-20T04:28:47;18.88;;;15.02;;
26407;SDS011;14583;43.604;1.364;2023-12-20T04:31:13;18.42;;;14.38;;
26407;SDS011;14583;43.604;1.364;2023-12-20T04:33:38;14.55;;;13.05;;
26407;SDS011;14583;43.604;1.364;2023-12-20T04:36:04;15.25;;;12.10;;
26407;SDS011;14583;43.604;1.364;2023-12-20T04:38:30;11.82;;;10.55;;
26407;SDS011;14583;43.604;1.364;2023-12-20T04:40:56;20.00;;;11.68;;
26407;SDS011;14583;43.604;1.364;2023-12-20T04:43:21;13.90;;;10.93;;
26407;SDS011;14583;43.604;1.364;2023-12-20T04:45:47;15.63;;;11.02;;
26407;SDS011;14583;43.604;1.364;2023-12-20T04:48:13;12.10;;;9.32;;
26407;SDS011;14583;43.604;1.364;2023-12-20T04:50:39;11.10;;;9.52;;
26407;SDS011;14583;43.604;1.364;2023-12-20T04:53:04;10.23;;;9.23;;
26407;SDS011;14583;43.604;1.364;2023-12-20T04:55:30;11.68;;;8.93;;
26407;SDS011;14583;43.604;1.364;2023-12-20T04:57:56;10.98;;;9.27;;
26407;SDS011;14583;43.604;1.364;2023-12-20T05:00:22;11.35;;;9.23;;
26407;SDS011;14583;43.604;1.364;2023-12-20T05:02:47;11.13;;;8.60;;
26407;SDS011;14583;43.604;1.364;2023-12-20T05:05:13;11.13;;;8.13;;
26407;SDS011;14583;43.604;1.364;2023-12-20T05:07:40;10.13;;;8.10;;
26407;SDS011;14583;43.604;1.364;2023-12-20T05:10:06;9.38;;;8.35;;
26407;SDS011;14583;43.604;1.364;2023-12-20T05:12:33;10.38;;;7.97;;
26407;SDS011;14583;43.604;1.364;2023-12-20T05:14:59;11.80;;;7.95;;
26407;SDS011;14583;43.604;1.364;2023-12-20T05:17:25;9.18;;;8.15;;
26407;SDS011;14583;43.604;1.364;2023-12-20T05:19:50;8.27;;;7.45;;
26407;SDS011;14583;43.604;1.364;2023-12-20T05:22:17;10.00;;;7.80;;
26407;SDS011;14583;43.604;1.364;2023-12-20T05:24:43;7.85;;;7.05;;
26407;SDS011;14583;43.604;1.364;2023-12-20T05:27:09;8.75;;;7.25;;
26407;SDS011;14583;43.604;1.364;2023-12-20T05:29:35;7.72;;;6.85;;
26407;SDS011;14583;43.604;1.364;2023-12-20T05:32:01;10.68;;;7.32;;
26407;SDS011;14583;43.604;1.364;2023-12-20T05:34:28;8.05;;;6.57;;
26407;SDS011;14583;43.604;1.364;2023-12-20T05:36:54;6.95;;;6.25;;
26407;SDS011;14583;43.604;1.364;2023-12-20T05:39:19;8.15;;;5.82;;
26407;SDS011;14583;43.604;1.364;2023-12-20T05:41:45;7.20;;;6.50;;
26407;SDS011;14583;43.604;1.364;2023-12-20T05:44:11;7.57;;;5.60;;
26407;SDS011;14583;43.604;1.364;2023-12-20T05:46:36;8.27;;;5.85;;
26407;SDS011;14583;43.604;1.364;2023-12-20T05:49:02;9.00;;;6.82;;
26407;SDS011;14583;43.604;1.364;2023-12-20T05:51:27;8.88;;;6.22;;
26407;SDS011;14583;43.604;1.364;2023-12-20T05:53:53;9.10;;;6.47;;
26407;SDS011;14583;43.604;1.364;2023-12-20T05:56:19;7.60;;;6.40;;
26407;SDS011;14583;43.604;1.364;2023-12-20T05:58:44;9.77;;;6.57;;
26407;SDS011;14583;43.604;1.364;2023-12-20T06:01:10;7.55;;;6.40;;
26407;SDS011;14583;43.604;1.364;2023-12-20T06:03:36;9.52;;;6.88;;
26407;SDS011;14583;43.604;1.364;2023-12-20T06:06:06;7.82;;;6.55;;
26407;SDS011;14583;43.604;1.364;2023-12-20T06:08:32;7.47;;;6.15;;
26407;SDS011;14583;43.604;1.364;2023-12-20T06:10:58;7.07;;;6.38;;
26407;SDS011;14583;43.604;1.364;2023-12-20T06:13:23;6.07;;;5.35;;
26407;SDS011;14583;43.604;1.364;2023-12-20T06:15:49;6.93;;;6.22;;
26407;SDS011;14583;43.604;1.364;2023-12-20T06:18:15;5.70;;;5.10;;
26407;SDS011;14583;43.604;1.364;2023-12-20T06:20:40;11.25;;;5.07;;
26407;SDS011;14583;43.604;1.364;2023-12-20T06:23:06;7.70;;;5.00;;
26407;SDS011;14583;43.604;1.364;2023-12-20T06:25:32;5.35;;;4.85;;
26407;SDS011;14583;43.604;1.364;2023-12-20T06:27:57;6.65;;;4.80;;
26407;SDS011;14583;43.604;1.364;2023-12-20T06:30:23;6.80;;;4.93;;
26407;SDS011;14583;43.604;1.364;2023-12-20T06:32:50;6.72;;;4.63;;
26407;SDS011;14583;43.604;1.364;2023-12-20T06:35:16;5.22;;;4.72;;
26407;SDS011;14583;43.604;1.364;2023-12-20T06:37:41;8.60;;;3.88;;
26407;SDS011;14583;43.604;1.364;2023-12-20T06:40:09;5.05;;;4.50;;
26407;SDS011;14583;43.604;1.364;2023-12-20T06:42:35;5.38;;;4.40;;
26407;SDS011;14583;43.604;1.364;2023-12-20T06:45:01;4.53;;;3.85;;
26407;SDS011;14583;43.604;1.364;2023-12-20T06:47:27;4.72;;;4.00;;
26407;SDS011;14583;43.604;1.364;2023-12-20T06:49:53;4.88;;;4.13;;
26407;SDS011;14583;43.604;1.364;2023-12-20T06:52:18;3.20;;;2.90;;
26407;SDS011;14583;43.604;1.364;2023-12-20T06:54:44;4.68;;;3.67;;
26407;SDS011;14583;43.604;1.364;2023-12-20T06:57:10;3.75;;;3.17;;
26407;SDS011;14583;43.604;1.364;2023-12-20T06:59:41;5.97;;;2.97;;
26407;SDS011;14583;43.604;1.364;2023-12-20T07:02:08;3.50;;;2.70;;
26407;SDS011;14583;43.604;1.364;2023-12-20T07:04:34;4.07;;;2.97;;
26407;SDS011;14583;43.604;1.364;2023-12-20T07:07:03;2.92;;;2.50;;
26407;SDS011;14583;43.604;1.364;2023-12-20T07:09:29;3.00;;;2.47;;
26407;SDS011;14583;43.604;1.364;2023-12-20T07:11:55;2.53;;;2.28;;
26407;SDS011;14583;43.604;1.364;2023-12-20T07:14:20;2.85;;;2.55;;
26407;SDS011;14583;43.604;1.364;2023-12-20T07:16:46;4.80;;;3.60;;
26407;SDS011;14583;43.604;1.364;2023-12-20T07:19:12;3.30;;;2.92;;
26407;SDS011;14583;43.604;1.364;2023-12-20T07:21:38;5.90;;;3.47;;
26407;SDS011;14583;43.604;1.364;2023-12-20T07:24:03;5.32;;;3.72;;
26407;SDS011;14583;43.604;1.364;2023-12-20T07:26:29;2.92;;;2.70;;
26407;SDS011;14583;43.604;1.364;2023-12-20T07:28:55;3.05;;;2.70;;
26407;SDS011;14583;43.604;1.364;2023-12-20T07:31:20;2.80;;;2.50;;
26407;SDS011;14583;43.604;1.364;2023-12-20T07:33:46;3.35;;;2.85;;
26407;SDS011;14583;43.604;1.364;2023-12-20T07:36:12;4.82;;;2.90;;
26407;SDS011;14583;43.604;1.364;2023-12-20T07:38:38;2.40;;;2.20;;
26407;SDS011;14583;43.604;1.364;2023-12-20T07:41:04;2.78;;;2.28;;
26407;SDS011;14583;43.604;1.364;2023-12-20T07:43:30;2.60;;;2.40;;
26407;SDS011;14583;43.604;1.364;2023-12-20T07:45:55;2.42;;;2.22;;
26407;SDS011;14583;43.604;1.364;2023-12-20T07:48:21;4.05;;;2.30;;
26407;SDS011;14583;43.604;1.364;2023-12-20T07:50:47;2.72;;;2.10;;
26407;SDS011;14583;43.604;1.364;2023-12-20T07:53:13;2.00;;;1.80;;
26407;SDS011;14583;43.604;1.364;2023-12-20T07:55:39;3.20;;;1.73;;
26407;SDS011;14583;43.604;1.364;2023-12-20T07:58:04;2.38;;;2.17;;
26407;SDS011;14583;43.604;1.364;2023-12-20T08:00:30;2.28;;;1.90;;
26407;SDS011;14583;43.604;1.364;2023-12-20T08:02:56;2.63;;;1.90;;
26407;SDS011;14583;43.604;1.364;2023-12-20T08:05:21;2.33;;;2.10;;
26407;SDS011;14583;43.604;1.364;2023-12-20T08:07:47;2.22;;;1.95;;
26407;SDS011;14583;43.604;1.364;2023-12-20T08:10:13;1.77;;;1.67;;
26407;SDS011;14583;43.604;1.364;2023-12-20T08:12:39;2.17;;;1.95;;
26407;SDS011;14583;43.604;1.364;2023-12-20T08:15:05;3.65;;;2.25;;
26407;SDS011;14583;43.604;1.364;2023-12-20T08:17:31;2.10;;;1.90;;
26407;SDS011;14583;43.604;1.364;2023-12-20T08:19:57;4.78;;;2.17;;
26407;SDS011;14583;43.604;1.364;2023-12-20T08:22:22;2.22;;;2.03;;
26407;SDS011;14583;43.604;1.364;2023-12-20T08:24:48;2.10;;;2.00;;
26407;SDS011;14583;43.604;1.364;2023-12-20T08:27:14;3.33;;;2.22;;
26407;SDS011;14583;43.604;1.364;2023-12-20T08:29:40;2.65;;;2.20;;
26407;SDS011;14583;43.604;1.364;2023-12-20T08:32:05;2.33;;;2.13;;
26407;SDS011;14583;43.604;1.364;2023-12-20T08:34:31;2.90;;;2.28;;
26407;SDS011;14583;43.604;1.364;2023-12-20T08:36:57;2.75;;;2.28;;
26407;SDS011;14583;43.604;1.364;2023-12-20T08:39:22;3.00;;;2.58;;
26407;SDS011;14583;43.604;1.364;2023-12-20T08:41:48;5.55;;;3.00;;
26407;SDS011;14583;43.604;1.364;2023-12-20T08:44:14;4.28;;;2.63;;
26407;SDS011;14583;43.604;1.364;2023-12-20T08:46:40;4.45;;;3.20;;
26407;SDS011;14583;43.604;1.364;2023-12-20T08:49:05;5.38;;;3.20;;
26407;SDS011;14583;43.604;1.364;2023-12-20T08:51:31;6.13;;;3.30;;
26407;SDS011;14583;43.604;1.364;2023-12-20T08:53:58;4.15;;;3.08;;
26407;SDS011;14583;43.604;1.364;2023-12-20T08:56:24;4.72;;;3.17;;
26407;SDS011;14583;43.604;1.364;2023-12-20T08:58:49;5.35;;;3.30;;
26407;SDS011;14583;43.604;1.364;2023-12-20T09:01:15;3.63;;;2.88;;
26407;SDS011;14583;43.604;1.364;2023-12-20T09:03:41;6.00;;;2.70;;
26407;SDS011;14583;43.604;1.364;2023-12-20T09:06:06;3.83;;;3.10;;
26407;SDS011;14583;43.604;1.364;2023-12-20T09:08:32;5.72;;;2.75;;
26407;SDS011;14583;43.604;1.364;2023-12-20T09:10:59;5.07;;;3.25;;
26407;SDS011;14583;43.604;1.364;2023-12-20T09:13:25;4.80;;;3.08;;
26407;SDS011;14583;43.604;1.364;2023-12-20T09:15:54;4.65;;;3.03;;
26407;SDS011;14583;43.604;1.364;2023-12-20T09:18:20;6.00;;;2.85;;
26407;SDS011;14583;43.604;1.364;2023-12-20T09:20:46;7.28;;;2.97;;
26407;SDS011;14583;43.604;1.364;2023-12-20T09:23:12;4.97;;;2.25;;
26407;SDS011;14583;43.604;1.364;2023-12-20T09:25:37;4.53;;;2.50;;
26407;SDS011;14583;43.604;1.364;2023-12-20T09:28:03;3.38;;;2.63;;
26407;SDS011;14583;43.604;1.364;2023-12-20T09:30:29;2.72;;;2.20;;
26407;SDS011;14583;43.604;1.364;2023-12-20T09:32:55;4.97;;;2.67;;
26407;SDS011;14583;43.604;1.364;2023-12-20T09:35:21;6.68;;;2.13;;
26407;SDS011;14583;43.604;1.364;2023-12-20T09:37:47;5.85;;;2.20;;
26407;SDS011;14583;43.604;1.364;2023-12-20T09:40:13;5.10;;;2.10;;
26407;SDS011;14583;43.604;1.364;2023-12-20T09:42:55;4.57;;;2.15;;
26407;SDS011;14583;43.604;1.364;2023-12-20T09:45:22;7.05;;;2.22;;
26407;SDS011;14583;43.604;1.364;2023-12-20T09:47:49;6.15;;;2.40;;
26407;SDS011;14583;43.604;1.364;2023-12-20T09:50:17;5.60;;;2.40;;
26407;SDS011;14583;43.604;1.364;2023-12-20T09:52:45;6.10;;;2.22;;
26407;SDS011;14583;43.604;1.364;2023-12-20T09:55:15;4.72;;;2.03;;
26407;SDS011;14583;43.604;1.364;2023-12-20T09:57:45;2.65;;;1.65;;
26407;SDS011;14583;43.604;1.364;2023-12-20T10:00:12;5.13;;;2.20;;
26407;SDS011;14583;43.604;1.364;2023-12-20T10:02:41;8.43;;;2.60;;
26407;SDS011;14583;43.604;1.364;2023-12-20T10:05:15;6.88;;;2.30;;
26407;SDS011;14583;43.604;1.364;2023-12-20T10:07:44;4.70;;;1.98;;
26407;SDS011;14583;43.604;1.364;2023-12-20T10:10:10;8.00;;;2.10;;
26407;SDS011;14583;43.604;1.364;2023-12-20T10:12:38;7.60;;;2.40;;
26407;SDS011;14583;43.604;1.364;2023-12-20T10:15:04;4.65;;;2.00;;
26407;SDS011;14583;43.604;1.364;2023-12-20T10:17:31;7.63;;;2.10;;
26407;SDS011;14583;43.604;1.364;2023-12-20T10:19:57;6.15;;;2.40;;
26407;SDS011;14583;43.604;1.364;2023-12-20T10:22:23;3.72;;;2.30;;
26407;SDS011;14583;43.604;1.364;2023-12-20T10:24:49;5.18;;;2.33;;
26407;SDS011;14583;43.604;1.364;2023-12-20T10:27:15;4.82;;;2.05;;
26407;SDS011;14583;43.604;1.364;2023-12-20T10:29:44;4.85;;;1.77;;
26407;SDS011;14583;43.604;1.364;2023-12-20T10:34:49;8.57;;;2.05;;
26407;SDS011;14583;43.604;1.364;2023-12-20T10:37:19;6.05;;;1.77;;
26407;SDS011;14583;43.604;1.364;2023-12-20T10:39:49;8.10;;;2.30;;
26407;SDS011;14583;43.604;1.364;2023-12-20T10:42:26;4.20;;;1.95;;
26407;SDS011;14583;43.604;1.364;2023-12-20T10:44:52;4.35;;;2.45;;
26407;SDS011;14583;43.604;1.364;2023-12-20T10:47:19;5.45;;;2.53;;
26407;SDS011;14583;43.604;1.364;2023-12-20T10:49:45;11.18;;;2.20;;
26407;SDS011;14583;43.604;1.364;2023-12-20T10:52:11;5.10;;;2.22;;
26407;SDS011;14583;43.604;1.364;2023-12-20T10:54:40;7.78;;;2.50;;
26407;SDS011;14583;43.604;1.364;2023-12-20T10:57:06;10.13;;;2.40;;
26407;SDS011;14583;43.604;1.364;2023-12-20T10:59:36;6.25;;;2.50;;
26407;SDS011;14583;43.604;1.364;2023-12-20T11:02:04;8.23;;;1.92;;
26407;SDS011;14583;43.604;1.364;2023-12-20T11:07:08;7.60;;;2.58;;
26407;SDS011;14583;43.604;1.364;2023-12-20T11:10:00;8.65;;;2.30;;
26407;SDS011;14583;43.604;1.364;2023-12-20T11:12:44;10.00;;;2.42;;
26407;SDS011;14583;43.604;1.364;2023-12-20T11:15:24;6.55;;;2.00;;
26407;SDS011;14583;43.604;1.364;2023-12-20T11:17:55;7.63;;;2.40;;
26407;SDS011;14583;43.604;1.364;2023-12-20T11:20:34;6.70;;;2.50;;
26407;SDS011;14583;43.604;1.364;2023-12-20T11:23:05;12.40;;;2.17;;
26407;SDS011;14583;43.604;1.364;2023-12-20T11:28:21;7.38;;;2.17;;
26407;SDS011;14583;43.604;1.364;2023-12-20T11:30:52;8.25;;;2.38;;
26407;SDS011;14583;43.604;1.364;2023-12-20T11:33:25;10.57;;;2.20;;
26407;SDS011;14583;43.604;1.364;2023-12-20T11:35:57;6.00;;;2.00;;
26407;SDS011;14583;43.604;1.364;2023-12-20T11:38:25;8.95;;;2.05;;
26407;SDS011;14583;43.604;1.364;2023-12-20T11:40:51;8.88;;;2.40;;
26407;SDS011;14583;43.604;1.364;2023-12-20T11:46:08;7.55;;;1.85;;
26407;SDS011;14583;43.604;1.364;2023-12-20T11:48:35;6.82;;;1.98;;
26407;SDS011;14583;43.604;1.364;2023-12-20T11:51:02;9.45;;;2.40;;
26407;SDS011;14583;43.604;1.364;2023-12-20T11:53:29;6.03;;;1.60;;
26407;SDS011;14583;43.604;1.364;2023-12-20T11:55:57;6.93;;;1.85;;
26407;SDS011;14583;43.604;1.364;2023-12-20T11:58:22;6.47;;;2.13;;
26407;SDS011;14583;43.604;1.364;2023-12-20T12:00:49;6.68;;;2.03;;
26407;SDS011;14583;43.604;1.364;2023-12-20T12:03:16;6.57;;;1.90;;
26407;SDS011;14583;43.604;1.364;2023-12-20T12:05:41;5.63;;;1.98;;
26407;SDS011;14583;43.604;1.364;2023-12-20T12:08:07;8.98;;;1.98;;
26407;SDS011;14583;43.604;1.364;2023-12-20T12:10:33;7.13;;;2.08;;
26407;SDS011;14583;43.604;1.364;2023-12-20T12:12:59;12.55;;;2.72;;
26407;SDS011;14583;43.604;1.364;2023-12-20T12:15:25;6.57;;;2.30;;
26407;SDS011;14583;43.604;1.364;2023-12-20T12:17:55;6.13;;;2.03;;
26407;SDS011;14583;43.604;1.364;2023-12-20T12:20:21;4.07;;;1.40;;
26407;SDS011;14583;43.604;1.364;2023-12-20T12:23:00;6.60;;;1.83;;
26407;SDS011;14583;43.604;1.364;2023-12-20T12:25:28;6.18;;;1.45;;
26407;SDS011;14583;43.604;1.364;2023-12-20T12:27:56;4.15;;;1.33;;
26407;SDS011;14583;43.604;1.364;2023-12-20T12:30:22;8.55;;;2.17;;
26407;SDS011;14583;43.604;1.364;2023-12-20T12:32:48;6.85;;;1.70;;
26407;SDS011;14583;43.604;1.364;2023-12-20T12:35:15;7.85;;;1.98;;
26407;SDS011;14583;43.604;1.364;2023-12-20T12:37:41;6.78;;;1.98;;
26407;SDS011;14583;43.604;1.364;2023-12-20T12:40:11;7.63;;;2.00;;
26407;SDS011;14583;43.604;1.364;2023-12-20T12:42:39;7.97;;;2.20;;
26407;SDS011;14583;43.604;1.364;2023-12-20T12:45:06;12.48;;;3.10;;
26407;SDS011;14583;43.604;1.364;2023-12-20T12:47:32;14.65;;;3.10;;
26407;SDS011;14583;43.604;1.364;2023-12-20T12:49:58;10.45;;;2.40;;
26407;SDS011;14583;43.604;1.364;2023-12-20T12:52:24;9.95;;;2.35;;
26407;SDS011;14583;43.604;1.364;2023-12-20T12:54:51;10.10;;;2.72;;
26407;SDS011;14583;43.604;1.364;2023-12-20T12:57:17;7.28;;;1.70;;
26407;SDS011;14583;43.604;1.364;2023-12-20T12:59:44;10.45;;;2.00;;
26407;SDS011;14583;43.604;1.364;2023-12-20T13:02:13;9.65;;;2.05;;
26407;SDS011;14583;43.604;1.364;2023-12-20T13:04:39;9.02;;;2.13;;
26407;SDS011;14583;43.604;1.364;2023-12-20T13:07:06;6.57;;;1.40;;
26407;SDS011;14583;43.604;1.364;2023-12-20T13:09:32;9.20;;;2.00;;
26407;SDS011;14583;43.604;1.364;2023-12-20T13:11:58;12.15;;;2.15;;
26407;SDS011;14583;43.604;1.364;2023-12-20T13:14:24;11.45;;;3.03;;
26407;SDS011;14583;43.604;1.364;2023-12-20T13:16:50;6.68;;;1.90;;
26407;SDS011;14583;43.604;1.364;2023-12-20T13:19:16;10.77;;;2.42;;
26407;SDS011;14583;43.604;1.364;2023-12-20T13:21:41;7.93;;;2.67;;
26407;SDS011;14583;43.604;1.364;2023-12-20T13:24:07;6.55;;;2.33;;
26407;SDS011;14583;43.604;1.364;2023-12-20T13:26:33;7.78;;;2.50;;
26407;SDS011;14583;43.604;1.364;2023-12-20T13:28:58;9.85;;;2.63;;
26407;SDS011;14583;43.604;1.364;2023-12-20T13:31:24;9.88;;;2.50;;
26407;SDS011;14583;43.604;1.364;2023-12-20T13:33:50;11.75;;;2.47;;
26407;SDS011;14583;43.604;1.364;2023-12-20T13:36:17;14.00;;;2.75;;
26407;SDS011;14583;43.604;1.364;2023-12-20T13:38:43;7.80;;;1.88;;
26407;SDS011;14583;43.604;1.364;2023-12-20T13:41:09;7.57;;;1.92;;
26407;SDS011;14583;43.604;1.364;2023-12-20T13:43:35;6.70;;;2.20;;
26407;SDS011;14583;43.604;1.364;2023-12-20T13:46:00;9.73;;;2.40;;
26407;SDS011;14583;43.604;1.364;2023-12-20T13:48:26;12.80;;;2.03;;
26407;SDS011;14583;43.604;1.364;2023-12-20T13:50:52;8.90;;;2.30;;
26407;SDS011;14583;43.604;1.364;2023-12-20T13:53:19;9.10;;;2.50;;
26407;SDS011;14583;43.604;1.364;2023-12-20T13:55:45;8.30;;;2.22;;
26407;SDS011;14583;43.604;1.364;2023-12-20T13:58:11;10.63;;;2.53;;
26407;SDS011;14583;43.604;1.364;2023-12-20T14:00:37;11.20;;;2.22;;
26407;SDS011;14583;43.604;1.364;2023-12-20T14:03:05;9.93;;;2.35;;
26407;SDS011;14583;43.604;1.364;2023-12-20T14:05:32;10.80;;;2.50;;
26407;SDS011;14583;43.604;1.364;2023-12-20T14:07:58;10.70;;;2.30;;
26407;SDS011;14583;43.604;1.364;2023-12-20T14:10:24;8.75;;;2.30;;
26407;SDS011;14583;43.604;1.364;2023-12-20T14:12:53;13.82;;;2.17;;
26407;SDS011;14583;43.604;1.364;2023-12-20T14:15:19;9.70;;;2.40;;
26407;SDS011;14583;43.604;1.364;2023-12-20T14:17:44;13.10;;;2.90;;
26407;SDS011;14583;43.604;1.364;2023-12-20T14:20:10;6.63;;;2.15;;
26407;SDS011;14583;43.604;1.364;2023-12-20T14:22:39;11.50;;;2.22;;
26407;SDS011;14583;43.604;1.364;2023-12-20T14:25:10;11.50;;;2.63;;
26407;SDS011;14583;43.604;1.364;2023-12-20T14:27:37;9.85;;;2.40;;
26407;SDS011;14583;43.604;1.364;2023-12-20T14:30:03;13.00;;;2.10;;
26407;SDS011;14583;43.604;1.364;2023-12-20T14:32:31;11.48;;;2.08;;
26407;SDS011;14583;43.604;1.364;2023-12-20T14:34:57;15.68;;;3.25;;
26407;SDS011;14583;43.604;1.364;2023-12-20T14:37:22;13.50;;;2.03;;
26407;SDS011;14583;43.604;1.364;2023-12-20T14:39:48;11.32;;;2.20;;
26407;SDS011;14583;43.604;1.364;2023-12-20T14:42:14;8.38;;;1.90;;
26407;SDS011;14583;43.604;1.364;2023-12-20T14:44:40;13.30;;;2.10;;